sensor_id;sensor_type;location;lat;lon;timestamp;temperature;humidity
45685;DHT22;46836;48.388;16.210;2022-09-20T00:01:12;9.00;99.90
45685;DHT22;46836;48.388;16.210;2022-09-20T00:03:42;9.00;99.90
45685;DHT22;46836;48.388;16.210;2022-09-20T00:06:12;9.00;99.90
45685;DHT22;46836;48.388;16.210;2022-09-20T00:08:40;9.00;99.90
45685;DHT22;46836;48.388;16.210;2022-09-20T00:11:11;9.00;99.90
45685;DHT22;46836;48.388;16.210;2022-09-20T00:13:42;8.90;99.90
45685;DHT22;46836;48.388;16.210;2022-09-20T00:16:20;8.90;99.90
45685;DHT22;46836;48.388;16.210;2022-09-20T00:18:48;8.90;99.90
45685;DHT22;46836;48.388;16.210;2022-09-20T00:21:18;8.90;99.90
45685;DHT22;46836;48.388;16.210;2022-09-20T00:23:46;8.90;99.90
45685;DHT22;46836;48.388;16.210;2022-09-20T00:26:13;8.90;99.90
45685;DHT22;46836;48.388;16.210;2022-09-20T00:28:40;8.90;99.90
45685;DHT22;46836;48.388;16.210;2022-09-20T00:31:08;8.90;99.90
45685;DHT22;46836;48.388;16.210;2022-09-20T00:33:36;8.90;99.90
45685;DHT22;46836;48.388;16.210;2022-09-20T00:36:22;8.90;99.90
45685;DHT22;46836;48.388;16.210;2022-09-20T00:38:54;8.90;99.90
45685;DHT22;46836;48.388;16.210;2022-09-20T00:41:21;8.90;99.90
45685;DHT22;46836;48.388;16.210;2022-09-20T00:43:49;8.90;99.90
45685;DHT22;46836;48.388;16.210;2022-09-20T00:47:03;8.90;99.90
45685;DHT22;46836;48.388;16.210;2022-09-20T00:49:19;8.90;99.90
45685;DHT22;46836;48.388;16.210;2022-09-20T00:51:51;8.80;99.90
45685;DHT22;46836;48.388;16.210;2022-09-20T00:54:23;8.80;99.90
45685;DHT22;46836;48.388;16.210;2022-09-20T00:56:51;8.80;99.90
45685;DHT22;46836;48.388;16.210;2022-09-20T01:02:11;8.90;99.90
45685;DHT22;46836;48.388;16.210;2022-09-20T01:04:41;8.90;99.90
45685;DHT22;46836;48.388;16.210;2022-09-20T01:07:11;8.90;99.90
45685;DHT22;46836;48.388;16.210;2022-09-20T01:09:39;9.00;99.90
45685;DHT22;46836;48.388;16.210;2022-09-20T01:12:12;9.00;99.90
45685;DHT22;46836;48.388;16.210;2022-09-20T01:14:41;9.10;99.90
45685;DHT22;46836;48.388;16.210;2022-09-20T01:17:10;9.10;99.90
45685;DHT22;46836;48.388;16.210;2022-09-20T01:28:38;9.30;99.90
45685;DHT22;46836;48.388;16.210;2022-09-20T01:31:16;9.30;99.90
45685;DHT22;46836;48.388;16.210;2022-09-20T01:34:03;9.40;99.90
45685;DHT22;46836;48.388;16.210;2022-09-20T01:36:43;9.40;99.90
45685;DHT22;46836;48.388;16.210;2022-09-20T01:41:59;9.30;99.90
45685;DHT22;46836;48.388;16.210;2022-09-20T01:50:02;9.30;99.90
45685;DHT22;46836;48.388;16.210;2022-09-20T02:06:20;9.20;99.90
45685;DHT22;46836;48.388;16.210;2022-09-20T02:13:10;9.40;99.90
45685;DHT22;46836;48.388;16.210;2022-09-20T02:15:53;9.40;99.90
45685;DHT22;46836;48.388;16.210;2022-09-20T02:24:04;9.50;99.90
45685;DHT22;46836;48.388;16.210;2022-09-20T02:42:30;9.50;99.90
45685;DHT22;46836;48.388;16.210;2022-09-20T02:47:38;9.60;99.90
45685;DHT22;46836;48.388;16.210;2022-09-20T02:50:26;9.60;99.90
45685;DHT22;46836;48.388;16.210;2022-09-20T02:58:53;9.60;99.90
45685;DHT22;46836;48.388;16.210;2022-09-20T03:06:56;9.70;99.90
45685;DHT22;46836;48.388;16.210;2022-09-20T03:09:42;9.70;99.90
45685;DHT22;46836;48.388;16.210;2022-09-20T03:12:32;9.70;99.90
45685;DHT22;46836;48.388;16.210;2022-09-20T03:15:15;9.60;99.90
45685;DHT22;46836;48.388;16.210;2022-09-20T03:18:14;9.60;99.90
45685;DHT22;46836;48.388;16.210;2022-09-20T03:26:27;9.70;99.90
45685;DHT22;46836;48.388;16.210;2022-09-20T03:29:08;9.70;99.90
45685;DHT22;46836;48.388;16.210;2022-09-20T03:35:02;9.80;99.90
45685;DHT22;46836;48.388;16.210;2022-09-20T03:37:50;9.80;99.90
45685;DHT22;46836;48.388;16.210;2022-09-20T03:43:03;9.90;99.90
45685;DHT22;46836;48.388;16.210;2022-09-20T03:46:01;9.90;99.90
45685;DHT22;46836;48.388;16.210;2022-09-20T04:05:59;10.00;99.90
45685;DHT22;46836;48.388;16.210;2022-09-20T04:08:32;10.00;99.90
45685;DHT22;46836;48.388;16.210;2022-09-20T04:11:26;10.00;99.90
45685;DHT22;46836;48.388;16.210;2022-09-20T04:14:28;10.00;99.90
45685;DHT22;46836;48.388;16.210;2022-09-20T04:17:18;10.00;99.90
45685;DHT22;46836;48.388;16.210;2022-09-20T04:20:04;10.00;99.90
45685;DHT22;46836;48.388;16.210;2022-09-20T04:22:33;10.00;99.90
45685;DHT22;46836;48.388;16.210;2022-09-20T04:25:13;10.10;99.90
45685;DHT22;46836;48.388;16.210;2022-09-20T04:27:55;10.10;99.90
45685;DHT22;46836;48.388;16.210;2022-09-20T04:30:26;10.10;99.90
45685;DHT22;46836;48.388;16.210;2022-09-20T04:33:19;10.10;99.90
45685;DHT22;46836;48.388;16.210;2022-09-20T04:39:18;10.20;99.90
45685;DHT22;46836;48.388;16.210;2022-09-20T04:58:47;10.30;99.90
45685;DHT22;46836;48.388;16.210;2022-09-20T05:07:39;10.50;99.90
45685;DHT22;46836;48.388;16.210;2022-09-20T05:10:40;10.50;99.90
45685;DHT22;46836;48.388;16.210;2022-09-20T05:21:22;10.60;99.90
45685;DHT22;46836;48.388;16.210;2022-09-20T05:24:04;10.70;99.90
45685;DHT22;46836;48.388;16.210;2022-09-20T05:27:01;10.70;99.90
45685;DHT22;46836;48.388;16.210;2022-09-20T05:29:48;10.70;99.90
45685;DHT22;46836;48.388;16.210;2022-09-20T05:35:14;10.70;99.90
45685;DHT22;46836;48.388;16.210;2022-09-20T05:40:52;10.70;99.90
45685;DHT22;46836;48.388;16.210;2022-09-20T05:43:30;10.80;99.90
45685;DHT22;46836;48.388;16.210;2022-09-20T05:46:25;10.70;99.90
45685;DHT22;46836;48.388;16.210;2022-09-20T05:57:14;10.70;99.90
45685;DHT22;46836;48.388;16.210;2022-09-20T06:05:34;10.80;99.90
45685;DHT22;46836;48.388;16.210;2022-09-20T06:08:27;10.90;99.90
45685;DHT22;46836;48.388;16.210;2022-09-20T06:11:09;10.90;99.90
45685;DHT22;46836;48.388;16.210;2022-09-20T06:13:40;11.00;99.90
45685;DHT22;46836;48.388;16.210;2022-09-20T06:16:24;11.00;99.90
45685;DHT22;46836;48.388;16.210;2022-09-20T06:18:57;11.10;99.90
45685;DHT22;46836;48.388;16.210;2022-09-20T06:24:45;11.30;99.90
45685;DHT22;46836;48.388;16.210;2022-09-20T06:27:21;11.30;99.90
45685;DHT22;46836;48.388;16.210;2022-09-20T06:30:03;11.40;99.90
45685;DHT22;46836;48.388;16.210;2022-09-20T06:32:32;11.50;99.90
45685;DHT22;46836;48.388;16.210;2022-09-20T06:35:02;11.60;99.90
45685;DHT22;46836;48.388;16.210;2022-09-20T06:37:44;11.70;99.90
45685;DHT22;46836;48.388;16.210;2022-09-20T06:40:42;11.70;99.90
45685;DHT22;46836;48.388;16.210;2022-09-20T06:43:29;11.80;99.90
45685;DHT22;46836;48.388;16.210;2022-09-20T06:45:57;11.90;99.90
45685;DHT22;46836;48.388;16.210;2022-09-20T06:48:25;12.00;99.90
45685;DHT22;46836;48.388;16.210;2022-09-20T06:50:52;12.20;99.90
45685;DHT22;46836;48.388;16.210;2022-09-20T06:53:27;12.30;99.90
45685;DHT22;46836;48.388;16.210;2022-09-20T06:55:55;12.40;99.90
45685;DHT22;46836;48.388;16.210;2022-09-20T06:58:23;12.40;99.90
45685;DHT22;46836;48.388;16.210;2022-09-20T07:00:50;12.50;99.90
45685;DHT22;46836;48.388;16.210;2022-09-20T07:03:17;12.50;99.90
45685;DHT22;46836;48.388;16.210;2022-09-20T07:05:45;12.50;99.90
45685;DHT22;46836;48.388;16.210;2022-09-20T07:08:12;12.60;99.90
45685;DHT22;46836;48.388;16.210;2022-09-20T07:10:39;12.60;99.90
45685;DHT22;46836;48.388;16.210;2022-09-20T07:13:09;12.60;99.90
45685;DHT22;46836;48.388;16.210;2022-09-20T07:15:39;12.60;99.90
45685;DHT22;46836;48.388;16.210;2022-09-20T07:18:06;12.60;99.90
45685;DHT22;46836;48.388;16.210;2022-09-20T07:20:33;12.60;99.90
45685;DHT22;46836;48.388;16.210;2022-09-20T07:23:01;12.60;99.90
45685;DHT22;46836;48.388;16.210;2022-09-20T07:25:30;12.60;99.90
45685;DHT22;46836;48.388;16.210;2022-09-20T07:27:57;12.60;99.90
45685;DHT22;46836;48.388;16.210;2022-09-20T07:30:24;12.60;99.90
45685;DHT22;46836;48.388;16.210;2022-09-20T07:32:51;12.60;99.90
45685;DHT22;46836;48.388;16.210;2022-09-20T07:35:18;12.60;99.90
45685;DHT22;46836;48.388;16.210;2022-09-20T07:37:45;12.60;99.90
45685;DHT22;46836;48.388;16.210;2022-09-20T07:40:13;12.70;99.90
45685;DHT22;46836;48.388;16.210;2022-09-20T07:42:41;12.70;99.90
45685;DHT22;46836;48.388;16.210;2022-09-20T07:45:11;12.70;99.90
45685;DHT22;46836;48.388;16.210;2022-09-20T07:47:38;12.80;99.90
45685;DHT22;46836;48.388;16.210;2022-09-20T07:50:07;12.70;99.90
45685;DHT22;46836;48.388;16.210;2022-09-20T07:52:37;12.80;99.90
45685;DHT22;46836;48.388;16.210;2022-09-20T07:55:04;12.80;99.90
45685;DHT22;46836;48.388;16.210;2022-09-20T07:57:34;12.90;99.90
45685;DHT22;46836;48.388;16.210;2022-09-20T08:00:05;12.90;99.90
45685;DHT22;46836;48.388;16.210;2022-09-20T08:02:32;12.90;99.90
45685;DHT22;46836;48.388;16.210;2022-09-20T08:05:00;13.00;99.90
45685;DHT22;46836;48.388;16.210;2022-09-20T08:07:28;13.10;99.90
45685;DHT22;46836;48.388;16.210;2022-09-20T08:09:55;13.20;99.90
45685;DHT22;46836;48.388;16.210;2022-09-20T08:12:22;13.30;99.90
45685;DHT22;46836;48.388;16.210;2022-09-20T08:15:09;13.40;99.90
45685;DHT22;46836;48.388;16.210;2022-09-20T08:17:37;13.40;99.90
45685;DHT22;46836;48.388;16.210;2022-09-20T08:20:06;13.40;99.90
45685;DHT22;46836;48.388;16.210;2022-09-20T08:22:33;13.40;99.90
45685;DHT22;46836;48.388;16.210;2022-09-20T08:25:00;13.40;99.90
45685;DHT22;46836;48.388;16.210;2022-09-20T08:27:28;13.40;99.90
45685;DHT22;46836;48.388;16.210;2022-09-20T08:29:55;13.40;99.90
45685;DHT22;46836;48.388;16.210;2022-09-20T08:32:23;13.40;99.90
45685;DHT22;46836;48.388;16.210;2022-09-20T08:34:50;13.50;99.90
45685;DHT22;46836;48.388;16.210;2022-09-20T08:37:17;13.50;99.90
45685;DHT22;46836;48.388;16.210;2022-09-20T08:39:44;13.60;99.90
45685;DHT22;46836;48.388;16.210;2022-09-20T08:42:30;13.60;99.90
45685;DHT22;46836;48.388;16.210;2022-09-20T08:45:05;13.80;99.90
45685;DHT22;46836;48.388;16.210;2022-09-20T08:47:54;13.90;99.90
45685;DHT22;46836;48.388;16.210;2022-09-20T08:50:25;14.20;99.90
45685;DHT22;46836;48.388;16.210;2022-09-20T08:52:56;14.30;99.90
45685;DHT22;46836;48.388;16.210;2022-09-20T08:55:27;14.40;99.90
45685;DHT22;46836;48.388;16.210;2022-09-20T08:58:02;14.50;99.90
45685;DHT22;46836;48.388;16.210;2022-09-20T09:00:35;14.60;99.90
45685;DHT22;46836;48.388;16.210;2022-09-20T09:03:06;14.70;99.90
45685;DHT22;46836;48.388;16.210;2022-09-20T09:05:43;14.70;99.90
45685;DHT22;46836;48.388;16.210;2022-09-20T09:08:14;14.70;99.90
45685;DHT22;46836;48.388;16.210;2022-09-20T09:10:48;14.70;99.90
45685;DHT22;46836;48.388;16.210;2022-09-20T09:13:33;14.70;99.90
45685;DHT22;46836;48.388;16.210;2022-09-20T09:16:14;14.80;99.90
45685;DHT22;46836;48.388;16.210;2022-09-20T09:18:50;14.90;99.90
45685;DHT22;46836;48.388;16.210;2022-09-20T09:21:26;14.90;99.90
45685;DHT22;46836;48.388;16.210;2022-09-20T09:24:02;15.00;99.90
45685;DHT22;46836;48.388;16.210;2022-09-20T09:26:38;15.10;99.90
45685;DHT22;46836;48.388;16.210;2022-09-20T09:31:42;15.50;99.90
45685;DHT22;46836;48.388;16.210;2022-09-20T09:34:28;15.50;99.90
45685;DHT22;46836;48.388;16.210;2022-09-20T09:36:56;15.70;99.90
45685;DHT22;46836;48.388;16.210;2022-09-20T09:39:34;15.80;99.90
45685;DHT22;46836;48.388;16.210;2022-09-20T09:42:25;15.80;99.90
45685;DHT22;46836;48.388;16.210;2022-09-20T09:45:10;15.80;99.90
45685;DHT22;46836;48.388;16.210;2022-09-20T09:47:37;15.90;99.90
45685;DHT22;46836;48.388;16.210;2022-09-20T09:50:05;15.80;99.90
45685;DHT22;46836;48.388;16.210;2022-09-20T09:52:35;15.80;99.90
45685;DHT22;46836;48.388;16.210;2022-09-20T09:55:03;15.60;99.90
45685;DHT22;46836;48.388;16.210;2022-09-20T10:00:20;15.40;99.90
45685;DHT22;46836;48.388;16.210;2022-09-20T10:03:09;15.30;99.90
45685;DHT22;46836;48.388;16.210;2022-09-20T10:12:30;15.90;99.90
45685;DHT22;46836;48.388;16.210;2022-09-20T10:17:22;15.80;99.90
45685;DHT22;46836;48.388;16.210;2022-09-20T10:25:56;16.40;99.90
45685;DHT22;46836;48.388;16.210;2022-09-20T10:34:22;16.60;99.90
45685;DHT22;46836;48.388;16.210;2022-09-20T10:36:58;16.40;99.90
45685;DHT22;46836;48.388;16.210;2022-09-20T10:39:38;16.20;99.90
45685;DHT22;46836;48.388;16.210;2022-09-20T10:42:39;16.10;99.90
45685;DHT22;46836;48.388;16.210;2022-09-20T10:52:04;15.20;99.90
45685;DHT22;46836;48.388;16.210;2022-09-20T11:08:54;14.80;99.90
45685;DHT22;46836;48.388;16.210;2022-09-20T11:11:45;14.70;99.90
45685;DHT22;46836;48.388;16.210;2022-09-20T11:14:20;14.70;99.90
45685;DHT22;46836;48.388;16.210;2022-09-20T11:22:37;14.60;99.90
45685;DHT22;46836;48.388;16.210;2022-09-20T11:25:15;14.70;99.90
45685;DHT22;46836;48.388;16.210;2022-09-20T11:28:32;14.60;99.90
45685;DHT22;46836;48.388;16.210;2022-09-20T11:31:35;14.60;99.90
45685;DHT22;46836;48.388;16.210;2022-09-20T11:34:13;14.50;99.90
45685;DHT22;46836;48.388;16.210;2022-09-20T11:36:48;14.50;99.90
45685;DHT22;46836;48.388;16.210;2022-09-20T11:42:21;14.50;99.90
45685;DHT22;46836;48.388;16.210;2022-09-20T11:44:50;14.60;99.90
45685;DHT22;46836;48.388;16.210;2022-09-20T11:47:32;14.70;99.90
45685;DHT22;46836;48.388;16.210;2022-09-20T11:59:00;14.80;99.90
45685;DHT22;46836;48.388;16.210;2022-09-20T12:01:29;14.80;99.90
45685;DHT22;46836;48.388;16.210;2022-09-20T12:04:21;14.90;99.90
45685;DHT22;46836;48.388;16.210;2022-09-20T12:07:23;14.90;99.90
45685;DHT22;46836;48.388;16.210;2022-09-20T12:10:00;15.00;99.90
45685;DHT22;46836;48.388;16.210;2022-09-20T12:12:39;15.10;99.90
45685;DHT22;46836;48.388;16.210;2022-09-20T12:15:31;15.20;99.90
45685;DHT22;46836;48.388;16.210;2022-09-20T12:18:00;15.50;99.90
45685;DHT22;46836;48.388;16.210;2022-09-20T12:36:41;15.50;99.90
45685;DHT22;46836;48.388;16.210;2022-09-20T12:42:00;15.60;99.90
45685;DHT22;46836;48.388;16.210;2022-09-20T12:58:04;15.80;99.90
45685;DHT22;46836;48.388;16.210;2022-09-20T13:00:34;15.80;99.90
45685;DHT22;46836;48.388;16.210;2022-09-20T13:05:43;16.00;99.90
45685;DHT22;46836;48.388;16.210;2022-09-20T13:08:14;15.90;99.90
45685;DHT22;46836;48.388;16.210;2022-09-20T13:13:49;15.80;99.90
45685;DHT22;46836;48.388;16.210;2022-09-20T13:16:21;15.70;99.90
45685;DHT22;46836;48.388;16.210;2022-09-20T13:19:20;15.70;99.90
45685;DHT22;46836;48.388;16.210;2022-09-20T13:24:51;15.60;99.90
45685;DHT22;46836;48.388;16.210;2022-09-20T13:27:37;15.50;99.90
45685;DHT22;46836;48.388;16.210;2022-09-20T13:30:26;15.40;99.90
45685;DHT22;46836;48.388;16.210;2022-09-20T13:32:55;15.50;99.90
45685;DHT22;46836;48.388;16.210;2022-09-20T13:35:24;15.60;99.90
45685;DHT22;46836;48.388;16.210;2022-09-20T13:37:57;15.70;99.90
45685;DHT22;46836;48.388;16.210;2022-09-20T13:40:32;15.80;99.90
45685;DHT22;46836;48.388;16.210;2022-09-20T13:43:02;15.80;99.90
45685;DHT22;46836;48.388;16.210;2022-09-20T13:45:53;15.80;99.90
45685;DHT22;46836;48.388;16.210;2022-09-20T13:48:29;15.80;99.90
45685;DHT22;46836;48.388;16.210;2022-09-20T13:50:57;15.80;99.90
45685;DHT22;46836;48.388;16.210;2022-09-20T13:53:26;15.60;99.90
45685;DHT22;46836;48.388;16.210;2022-09-20T13:56:27;15.50;99.90
45685;DHT22;46836;48.388;16.210;2022-09-20T13:58:56;15.30;99.90
45685;DHT22;46836;48.388;16.210;2022-09-20T14:01:27;15.20;99.90
45685;DHT22;46836;48.388;16.210;2022-09-20T14:04:04;15.00;99.90
45685;DHT22;46836;48.388;16.210;2022-09-20T14:06:33;14.90;99.90
45685;DHT22;46836;48.388;16.210;2022-09-20T14:09:05;14.70;99.90
45685;DHT22;46836;48.388;16.210;2022-09-20T14:11:37;14.70;99.90
45685;DHT22;46836;48.388;16.210;2022-09-20T14:14:05;14.60;99.90
45685;DHT22;46836;48.388;16.210;2022-09-20T14:16:43;14.60;99.90
45685;DHT22;46836;48.388;16.210;2022-09-20T14:19:18;14.50;99.90
45685;DHT22;46836;48.388;16.210;2022-09-20T14:21:47;14.40;99.90
45685;DHT22;46836;48.388;16.210;2022-09-20T14:24:27;14.40;99.90
45685;DHT22;46836;48.388;16.210;2022-09-20T14:29:43;14.30;99.90
45685;DHT22;46836;48.388;16.210;2022-09-20T14:35:13;14.20;99.90
45685;DHT22;46836;48.388;16.210;2022-09-20T14:40:43;13.90;99.90
45685;DHT22;46836;48.388;16.210;2022-09-20T14:45:53;13.70;99.90
45685;DHT22;46836;48.388;16.210;2022-09-20T14:51:17;13.60;99.90
45685;DHT22;46836;48.388;16.210;2022-09-20T14:56:40;13.40;99.90
45685;DHT22;46836;48.388;16.210;2022-09-20T15:01:40;13.30;99.90
45685;DHT22;46836;48.388;16.210;2022-09-20T15:04:20;13.20;99.90
45685;DHT22;46836;48.388;16.210;2022-09-20T15:06:49;13.20;99.90
45685;DHT22;46836;48.388;16.210;2022-09-20T15:09:18;13.20;99.90
45685;DHT22;46836;48.388;16.210;2022-09-20T15:11:47;13.20;99.90
45685;DHT22;46836;48.388;16.210;2022-09-20T15:14:24;13.10;99.90
45685;DHT22;46836;48.388;16.210;2022-09-20T15:16:51;13.00;99.90
45685;DHT22;46836;48.388;16.210;2022-09-20T15:19:18;12.80;99.90
45685;DHT22;46836;48.388;16.210;2022-09-20T15:21:45;12.70;99.90
45685;DHT22;46836;48.388;16.210;2022-09-20T15:24:12;12.70;99.90
45685;DHT22;46836;48.388;16.210;2022-09-20T15:26:40;12.60;99.90
45685;DHT22;46836;48.388;16.210;2022-09-20T15:29:08;12.70;99.90
45685;DHT22;46836;48.388;16.210;2022-09-20T15:31:39;12.60;99.90
45685;DHT22;46836;48.388;16.210;2022-09-20T15:34:06;12.60;99.90
45685;DHT22;46836;48.388;16.210;2022-09-20T15:36:35;12.60;99.90
45685;DHT22;46836;48.388;16.210;2022-09-20T15:39:03;12.60;99.90
45685;DHT22;46836;48.388;16.210;2022-09-20T15:41:30;12.70;99.90
45685;DHT22;46836;48.388;16.210;2022-09-20T15:43:58;12.70;99.90
45685;DHT22;46836;48.388;16.210;2022-09-20T15:46:25;12.60;99.90
45685;DHT22;46836;48.388;16.210;2022-09-20T15:48:53;12.60;99.90
45685;DHT22;46836;48.388;16.210;2022-09-20T15:51:21;12.50;99.90
45685;DHT22;46836;48.388;16.210;2022-09-20T15:56:24;12.50;99.90
45685;DHT22;46836;48.388;16.210;2022-09-20T15:59:01;12.40;99.90
45685;DHT22;46836;48.388;16.210;2022-09-20T16:01:31;12.40;99.90
45685;DHT22;46836;48.388;16.210;2022-09-20T16:04:07;12.40;99.90
45685;DHT22;46836;48.388;16.210;2022-09-20T16:06:36;12.40;99.90
45685;DHT22;46836;48.388;16.210;2022-09-20T16:09:05;12.30;99.90
45685;DHT22;46836;48.388;16.210;2022-09-20T16:11:34;12.30;99.90
45685;DHT22;46836;48.388;16.210;2022-09-20T16:14:01;12.30;99.90
45685;DHT22;46836;48.388;16.210;2022-09-20T16:16:29;12.30;99.90
45685;DHT22;46836;48.388;16.210;2022-09-20T16:19:04;12.30;99.90
45685;DHT22;46836;48.388;16.210;2022-09-20T16:21:51;12.30;99.90
45685;DHT22;46836;48.388;16.210;2022-09-20T16:24:28;12.20;99.90
45685;DHT22;46836;48.388;16.210;2022-09-20T16:26:57;12.20;99.90
45685;DHT22;46836;48.388;16.210;2022-09-20T16:29:24;12.20;99.90
45685;DHT22;46836;48.388;16.210;2022-09-20T16:31:54;12.20;99.90
45685;DHT22;46836;48.388;16.210;2022-09-20T16:34:33;12.20;99.90
45685;DHT22;46836;48.388;16.210;2022-09-20T16:37:03;12.10;99.90
45685;DHT22;46836;48.388;16.210;2022-09-20T16:39:31;12.10;99.90
45685;DHT22;46836;48.388;16.210;2022-09-20T16:42:03;12.10;99.90
45685;DHT22;46836;48.388;16.210;2022-09-20T16:44:35;12.00;99.90
45685;DHT22;46836;48.388;16.210;2022-09-20T16:47:04;12.00;99.90
45685;DHT22;46836;48.388;16.210;2022-09-20T16:49:35;12.00;99.90
45685;DHT22;46836;48.388;16.210;2022-09-20T16:52:07;12.00;99.90
45685;DHT22;46836;48.388;16.210;2022-09-20T16:54:35;12.00;99.90
45685;DHT22;46836;48.388;16.210;2022-09-20T16:57:03;11.90;99.90
45685;DHT22;46836;48.388;16.210;2022-09-20T16:59:30;11.90;99.90
45685;DHT22;46836;48.388;16.210;2022-09-20T17:01:58;11.90;99.90
45685;DHT22;46836;48.388;16.210;2022-09-20T17:04:25;11.90;99.90
45685;DHT22;46836;48.388;16.210;2022-09-20T17:06:52;11.90;99.90
45685;DHT22;46836;48.388;16.210;2022-09-20T17:09:19;11.80;99.90
45685;DHT22;46836;48.388;16.210;2022-09-20T17:11:48;11.80;99.90
45685;DHT22;46836;48.388;16.210;2022-09-20T17:14:17;11.80;99.90
45685;DHT22;46836;48.388;16.210;2022-09-20T17:16:46;11.80;99.90
45685;DHT22;46836;48.388;16.210;2022-09-20T17:19:16;11.80;99.90
45685;DHT22;46836;48.388;16.210;2022-09-20T17:21:45;11.80;99.90
45685;DHT22;46836;48.388;16.210;2022-09-20T17:24:18;11.80;99.90
45685;DHT22;46836;48.388;16.210;2022-09-20T17:26:48;11.80;99.90
45685;DHT22;46836;48.388;16.210;2022-09-20T17:29:18;11.80;99.90
45685;DHT22;46836;48.388;16.210;2022-09-20T17:31:48;11.80;99.90
45685;DHT22;46836;48.388;16.210;2022-09-20T17:34:23;11.80;99.90
45685;DHT22;46836;48.388;16.210;2022-09-20T17:36:52;11.80;99.90
45685;DHT22;46836;48.388;16.210;2022-09-20T17:39:22;11.80;99.90
45685;DHT22;46836;48.388;16.210;2022-09-20T17:41:50;11.80;99.90
45685;DHT22;46836;48.388;16.210;2022-09-20T17:44:18;11.80;99.90
45685;DHT22;46836;48.388;16.210;2022-09-20T17:46:47;11.80;99.90
45685;DHT22;46836;48.388;16.210;2022-09-20T17:49:21;11.80;99.90
45685;DHT22;46836;48.388;16.210;2022-09-20T17:51:51;11.80;99.90
45685;DHT22;46836;48.388;16.210;2022-09-20T17:54:19;11.80;99.90
45685;DHT22;46836;48.388;16.210;2022-09-20T17:56:48;11.70;99.90
45685;DHT22;46836;48.388;16.210;2022-09-20T17:59:17;11.70;99.90
45685;DHT22;46836;48.388;16.210;2022-09-20T18:01:46;11.70;99.90
45685;DHT22;46836;48.388;16.210;2022-09-20T18:04:14;11.70;99.90
45685;DHT22;46836;48.388;16.210;2022-09-20T18:06:48;11.60;99.90
45685;DHT22;46836;48.388;16.210;2022-09-20T18:09:19;11.60;99.90
45685;DHT22;46836;48.388;16.210;2022-09-20T18:11:51;11.60;99.90
45685;DHT22;46836;48.388;16.210;2022-09-20T18:14:22;11.50;99.90
45685;DHT22;46836;48.388;16.210;2022-09-20T18:16:52;11.50;99.90
45685;DHT22;46836;48.388;16.210;2022-09-20T18:19:20;11.50;99.90
45685;DHT22;46836;48.388;16.210;2022-09-20T18:21:49;11.50;99.90
45685;DHT22;46836;48.388;16.210;2022-09-20T18:24:16;11.50;99.90
45685;DHT22;46836;48.388;16.210;2022-09-20T18:26:43;11.50;99.90
45685;DHT22;46836;48.388;16.210;2022-09-20T18:29:12;11.50;99.90
45685;DHT22;46836;48.388;16.210;2022-09-20T18:31:48;11.40;99.90
45685;DHT22;46836;48.388;16.210;2022-09-20T18:34:19;11.50;99.90
45685;DHT22;46836;48.388;16.210;2022-09-20T18:36:53;11.50;99.90
45685;DHT22;46836;48.388;16.210;2022-09-20T18:41:48;11.40;99.90
45685;DHT22;46836;48.388;16.210;2022-09-20T18:44:16;11.50;99.90
45685;DHT22;46836;48.388;16.210;2022-09-20T18:46:45;11.40;99.90
45685;DHT22;46836;48.388;16.210;2022-09-20T18:49:13;11.40;99.90
45685;DHT22;46836;48.388;16.210;2022-09-20T18:51:43;11.40;99.90
45685;DHT22;46836;48.388;16.210;2022-09-20T18:54:11;11.40;99.90
45685;DHT22;46836;48.388;16.210;2022-09-20T18:56:40;11.40;99.90
45685;DHT22;46836;48.388;16.210;2022-09-20T18:59:14;11.40;99.90
45685;DHT22;46836;48.388;16.210;2022-09-20T19:20:50;11.10;99.90
45685;DHT22;46836;48.388;16.210;2022-09-20T19:26:22;11.10;99.90
45685;DHT22;46836;48.388;16.210;2022-09-20T19:28:52;11.00;99.90
45685;DHT22;46836;48.388;16.210;2022-09-20T19:31:25;11.00;99.90
45685;DHT22;46836;48.388;16.210;2022-09-20T19:33:54;11.00;99.90
45685;DHT22;46836;48.388;16.210;2022-09-20T19:36:35;10.90;99.90
45685;DHT22;46836;48.388;16.210;2022-09-20T19:39:09;10.90;99.90
45685;DHT22;46836;48.388;16.210;2022-09-20T19:49:53;10.70;99.90
45685;DHT22;46836;48.388;16.210;2022-09-20T19:52:24;10.60;99.90
45685;DHT22;46836;48.388;16.210;2022-09-20T19:54:52;10.60;99.90
45685;DHT22;46836;48.388;16.210;2022-09-20T19:57:34;10.60;99.90
45685;DHT22;46836;48.388;16.210;2022-09-20T20:00:06;10.60;99.90
45685;DHT22;46836;48.388;16.210;2022-09-20T20:02:35;10.50;99.90
45685;DHT22;46836;48.388;16.210;2022-09-20T20:05:02;10.50;99.90
45685;DHT22;46836;48.388;16.210;2022-09-20T20:07:38;10.50;99.90
45685;DHT22;46836;48.388;16.210;2022-09-20T20:15:38;10.50;99.90
45685;DHT22;46836;48.388;16.210;2022-09-20T20:19:22;10.40;99.90
45685;DHT22;46836;48.388;16.210;2022-09-20T20:24:29;10.30;99.90
45685;DHT22;46836;48.388;16.210;2022-09-20T20:26:58;10.30;99.90
45685;DHT22;46836;48.388;16.210;2022-09-20T20:29:25;10.30;99.90
45685;DHT22;46836;48.388;16.210;2022-09-20T20:31:52;10.20;99.90
45685;DHT22;46836;48.388;16.210;2022-09-20T20:34:20;10.20;99.90
45685;DHT22;46836;48.388;16.210;2022-09-20T20:36:47;10.10;99.90
45685;DHT22;46836;48.388;16.210;2022-09-20T20:39:15;10.10;99.90
45685;DHT22;46836;48.388;16.210;2022-09-20T20:41:42;10.00;99.90
45685;DHT22;46836;48.388;16.210;2022-09-20T20:44:09;9.90;99.90
45685;DHT22;46836;48.388;16.210;2022-09-20T20:46:38;9.90;99.90
45685;DHT22;46836;48.388;16.210;2022-09-20T20:49:05;9.90;99.90
45685;DHT22;46836;48.388;16.210;2022-09-20T20:51:33;9.80;99.90
45685;DHT22;46836;48.388;16.210;2022-09-20T20:54:02;9.80;99.90
45685;DHT22;46836;48.388;16.210;2022-09-20T20:56:31;9.70;99.90
45685;DHT22;46836;48.388;16.210;2022-09-20T20:59:01;9.70;99.90
45685;DHT22;46836;48.388;16.210;2022-09-20T21:01:33;9.70;99.90
45685;DHT22;46836;48.388;16.210;2022-09-20T21:04:03;9.60;99.90
45685;DHT22;46836;48.388;16.210;2022-09-20T21:06:32;9.60;99.90
45685;DHT22;46836;48.388;16.210;2022-09-20T21:09:00;9.60;99.90
45685;DHT22;46836;48.388;16.210;2022-09-20T21:11:32;9.60;99.90
45685;DHT22;46836;48.388;16.210;2022-09-20T21:14:01;9.50;99.90
45685;DHT22;46836;48.388;16.210;2022-09-20T21:16:31;9.50;99.90
45685;DHT22;46836;48.388;16.210;2022-09-20T21:19:03;9.50;99.90
45685;DHT22;46836;48.388;16.210;2022-09-20T21:21:36;9.40;99.90
45685;DHT22;46836;48.388;16.210;2022-09-20T21:24:08;9.40;99.90
45685;DHT22;46836;48.388;16.210;2022-09-20T21:26:38;9.30;99.90
45685;DHT22;46836;48.388;16.210;2022-09-20T21:29:13;9.30;99.90